Time;durP1;ratioP1;P1;durP2;ratioP2;P2;SDS_P1;SDS_P2;PMS_P1;PMS_P2;Temp;Humidity;BMP_temperature;BMP_pressure;BME280_temperature;BME280_humidity;BME280_pressure;Samples;Min_cycle;Max_cycle;Signal;HPM_P1;HPM_P2
2022/09/26 00:02:14;;;;;;;4.83;2.80;;;;;;;19.49;65.60;99942.78;5050358;28;20152;-66
2022/09/26 00:04:39;;;;;;;6.30;2.63;;;;;;;19.49;65.86;99930.50;5033899;28;20176;-66
2022/09/26 00:07:05;;;;;;;6.63;2.60;;;;;;;19.50;65.45;99930.09;5050997;28;20156;-66
2022/09/26 00:09:30;;;;;;;7.73;2.80;;;;;;;19.48;65.92;99932.53;5051243;28;20192;-66
2022/09/26 00:11:56;;;;;;;4.97;2.40;;;;;;;19.48;65.77;99931.72;5050489;28;20223;-66
2022/09/26 00:14:24;;;;;;;5.60;2.70;;;;;;;19.47;65.74;99936.59;5050491;28;20525;-66
2022/09/26 00:16:49;;;;;;;9.10;2.60;;;;;;;19.48;65.67;99923.97;5033073;28;20171;-66
2022/09/26 00:19:15;;;;;;;6.80;2.80;;;;;;;19.48;65.74;99921.09;5033023;28;20414;-66
2022/09/26 00:21:40;;;;;;;7.33;2.27;;;;;;;19.46;65.96;99916.97;5049747;28;20179;-67
2022/09/26 00:24:06;;;;;;;6.67;3.00;;;;;;;19.46;65.58;99917.78;5050864;28;20532;-66
2022/09/26 00:26:33;;;;;;;8.50;2.60;;;;;;;19.45;66.08;99915.31;5050496;28;20266;-66
2022/09/26 00:28:59;;;;;;;4.90;2.30;;;;;;;19.46;66.27;99912.06;5032949;28;20337;-66
2022/09/26 00:31:27;;;;;;;5.07;2.43;;;;;;;19.45;65.66;99910.41;5049551;28;20981;-65
2022/09/26 00:33:52;;;;;;;5.70;2.30;;;;;;;19.46;66.32;99908.41;5049348;28;20541;-66
2022/09/26 00:36:17;;;;;;;5.90;3.00;;;;;;;19.42;65.74;99899.75;5050349;28;20422;-66
2022/09/26 00:38:43;;;;;;;8.10;2.43;;;;;;;19.44;65.87;99905.91;5049091;28;20552;-66
2022/09/26 00:41:09;;;;;;;3.83;2.43;;;;;;;19.45;65.65;99898.97;5033005;28;20250;-66
2022/09/26 00:43:37;;;;;;;6.80;2.60;;;;;;;19.46;65.98;99902.66;5049819;28;20183;-66
2022/09/26 00:46:31;;;;;;;5.20;2.53;;;;;;;19.46;65.75;99902.66;5047331;28;20210;-66
2022/09/26 00:49:23;;;;;;;4.83;2.20;;;;;;;19.45;66.44;99896.09;5031754;28;20419;-66
2022/09/26 00:52:09;;;;;;;4.80;2.50;;;;;;;19.42;66.13;99902.63;5047560;28;20913;-66
2022/09/26 00:54:35;;;;;;;6.90;2.73;;;;;;;19.44;66.33;99900.19;5032912;28;20525;-66
2022/09/26 00:57:04;;;;;;;4.17;2.13;;;;;;;19.44;65.75;99899.34;5028738;28;20513;-66
2022/09/26 00:59:42;;;;;;;5.87;2.37;;;;;;;19.45;66.14;99901.00;5032061;28;20418;-66
2022/09/26 01:02:08;;;;;;;3.67;1.97;;;;;;;19.44;65.71;99899.34;5021009;28;20419;-66
2022/09/26 01:04:34;;;;;;;4.47;1.97;;;;;;;19.44;65.55;99894.47;5044592;28;20446;-66
2022/09/26 01:07:00;;;;;;;3.90;2.10;;;;;;;19.45;65.54;99904.69;5047798;28;20424;-66
2022/09/26 01:09:26;;;;;;;6.47;2.47;;;;;;;19.42;66.33;99899.75;5049210;28;20495;-66
2022/09/26 01:11:52;;;;;;;4.20;2.00;;;;;;;19.43;65.83;99897.72;5031960;28;20465;-65
2022/09/26 01:14:17;;;;;;;3.73;2.20;;;;;;;19.43;65.46;99897.72;5050005;28;20262;-66
2022/09/26 01:16:44;;;;;;;7.10;2.70;;;;;;;19.40;65.82;99884.19;5048295;28;20422;-66
2022/09/26 01:19:48;;;;;;;8.73;2.50;;;;;;;19.43;65.70;99884.25;5032951;28;20648;-66
2022/09/26 01:22:22;;;;;;;4.80;2.10;;;;;;;19.40;65.82;99881.31;5044413;28;20483;-66
2022/09/26 01:25:00;;;;;;;6.57;2.67;;;;;;;19.39;65.88;99886.25;5051365;28;20901;-65
2022/09/26 01:27:37;;;;;;;7.50;2.30;;;;;;;19.41;65.74;99880.94;5033343;28;20459;-66
2022/09/26 01:30:22;;;;;;;6.33;2.70;;;;;;;19.43;65.77;99878.53;5050368;28;20475;-66
2022/09/26 01:33:08;;;;;;;6.73;2.70;;;;;;;19.42;65.71;99876.03;5049993;28;20469;-66
2022/09/26 01:35:57;;;;;;;3.90;1.77;;;;;;;19.42;66.08;99870.31;5050008;28;20428;-66
2022/09/26 01:38:42;;;;;;;7.20;3.00;;;;;;;19.44;65.34;99876.47;5045669;28;20777;-66
2022/09/26 01:41:33;;;;;;;6.60;2.27;;;;;;;19.42;65.30;99873.19;5050481;28;20880;-66
2022/09/26 01:44:14;;;;;;;4.50;2.03;;;;;;;19.39;65.66;99871.94;5048995;28;20431;-66
2022/09/26 01:46:58;;;;;;;4.93;2.47;;;;;;;19.42;65.84;99868.25;5047890;28;20476;-66
2022/09/26 01:49:56;;;;;;;4.40;2.37;;;;;;;19.41;65.67;99865.81;5049947;28;20739;-66
2022/09/26 01:52:41;;;;;;;7.33;2.40;;;;;;;19.40;65.72;99865.00;5048307;28;20454;-66
2022/09/26 01:55:10;;;;;;;4.23;1.93;;;;;;;19.42;65.60;99873.97;5048071;28;20441;-66
2022/09/26 01:57:52;;;;;;;4.87;2.33;;;;;;;19.44;65.76;99870.72;5031672;28;20448;-66
2022/09/26 02:00:18;;;;;;;3.30;1.87;;;;;;;19.42;66.15;99862.53;5048323;28;20908;-66
2022/09/26 02:02:47;;;;;;;4.47;2.10;;;;;;;19.42;65.59;99864.59;5031548;28;20428;-66
2022/09/26 02:05:14;;;;;;;4.43;2.10;;;;;;;19.40;65.71;99859.25;5031687;28;20423;-66
2022/09/26 02:07:57;;;;;;;3.70;1.93;;;;;;;19.44;65.65;99862.16;5047879;28;20483;-66
2022/09/26 02:10:50;;;;;;;3.60;2.13;;;;;;;19.42;65.89;99848.22;5047143;28;20449;-66
2022/09/26 02:13:24;;;;;;;2.93;1.77;;;;;;;19.42;65.48;99848.22;5046748;28;20485;-65
2022/09/26 02:15:51;;;;;;;4.70;2.20;;;;;;;19.44;65.77;99842.94;5035818;28;20430;-66
2022/09/26 02:18:39;;;;;;;4.63;2.20;;;;;;;19.43;65.39;99835.56;5052147;28;20493;-66
2022/09/26 02:21:19;;;;;;;4.90;2.07;;;;;;;19.42;65.54;99833.91;5037738;28;20407;-66
2022/09/26 02:23:46;;;;;;;3.63;1.73;;;;;;;19.41;65.84;99842.91;5035193;28;20414;-66
2022/09/26 02:26:11;;;;;;;4.53;1.63;;;;;;;19.41;65.52;99820.03;5052737;28;20455;-66
2022/09/26 02:28:36;;;;;;;5.83;2.33;;;;;;;19.42;65.53;99821.66;5053354;28;20414;-66
2022/09/26 02:31:02;;;;;;;3.60;1.90;;;;;;;19.42;65.41;99822.47;5053179;28;20183;-66
2022/09/26 02:33:28;;;;;;;3.60;2.30;;;;;;;19.44;65.56;99825.75;5035255;28;20192;-66
2022/09/26 02:35:53;;;;;;;4.27;2.20;;;;;;;19.41;65.71;99815.09;5053014;28;20187;-66
2022/09/26 02:38:23;;;;;;;4.00;1.83;;;;;;;19.42;65.51;99822.47;5053150;28;20182;-66
2022/09/26 02:40:51;;;;;;;10.73;2.00;;;;;;;19.44;65.82;99813.47;5034875;28;20271;-66
2022/09/26 02:43:35;;;;;;;6.37;2.50;;;;;;;19.46;65.66;99811.06;5051533;28;20411;-66
2022/09/26 02:46:21;;;;;;;4.57;2.30;;;;;;;19.44;65.52;99804.88;5052485;28;20413;-66
2022/09/26 02:49:25;;;;;;;3.93;2.23;;;;;;;19.43;65.43;99798.34;5052787;28;20501;-66
2022/09/26 02:52:12;;;;;;;3.77;2.00;;;;;;;19.44;65.25;99790.56;5052866;28;20901;-66
2022/09/26 02:54:56;;;;;;;3.30;1.80;;;;;;;19.41;65.61;99786.47;5052876;28;20480;-66
2022/09/26 02:57:27;;;;;;;5.33;2.10;;;;;;;19.43;65.41;99788.94;5052127;28;20398;-66
2022/09/26 03:00:03;;;;;;;4.50;1.83;;;;;;;19.41;65.48;99775.03;5052075;28;20544;-66
2022/09/26 03:02:30;;;;;;;4.30;2.30;;;;;;;19.42;65.42;99782.38;5031385;28;20403;-66
2022/09/26 03:05:07;;;;;;;3.77;2.37;;;;;;;19.42;65.41;99781.56;5050304;28;20433;-66
2022/09/26 03:07:56;;;;;;;5.90;2.53;;;;;;;19.40;65.73;99784.00;5032625;28;20438;-66
2022/09/26 03:10:22;;;;;;;2.77;1.60;;;;;;;19.42;65.24;99779.50;5043656;28;20454;-66
2022/09/26 03:12:48;;;;;;;4.07;1.50;;;;;;;19.42;65.53;99775.84;5029378;28;20474;-66
2022/09/26 03:15:13;;;;;;;3.77;1.97;;;;;;;19.41;65.44;99772.16;5045336;28;20913;-66
2022/09/26 03:17:41;;;;;;;3.20;2.10;;;;;;;19.41;65.53;99774.22;5050309;28;20168;-66
2022/09/26 03:20:10;;;;;;;3.67;1.67;;;;;;;19.42;65.29;99765.19;5049167;28;20261;-66
2022/09/26 03:22:36;;;;;;;3.20;1.60;;;;;;;19.43;65.43;99766.88;5050051;28;20401;-66
2022/09/26 03:25:02;;;;;;;5.23;2.00;;;;;;;19.42;65.31;99759.47;5050695;28;20434;-66
2022/09/26 03:27:27;;;;;;;3.70;1.67;;;;;;;19.42;65.37;99759.47;5033707;28;20430;-66
2022/09/26 03:29:53;;;;;;;3.00;1.43;;;;;;;19.41;65.31;99746.38;5051783;28;20180;-65
2022/09/26 03:32:18;;;;;;;3.27;1.60;;;;;;;19.42;65.37;99748.03;5049026;28;20200;-66
2022/09/26 03:34:44;;;;;;;3.00;1.97;;;;;;;19.42;65.37;99758.69;5050235;28;20659;-66
2022/09/26 03:37:10;;;;;;;3.20;1.67;;;;;;;19.41;65.38;99751.31;5048877;28;20619;-67
2022/09/26 03:39:35;;;;;;;4.67;2.10;;;;;;;19.41;65.59;99743.53;5048370;28;20556;-67
2022/09/26 03:42:01;;;;;;;4.10;1.70;;;;;;;19.40;65.23;99744.75;5049224;28;20172;-67
2022/09/26 03:44:27;;;;;;;4.30;1.90;;;;;;;19.41;65.41;99743.53;5048870;28;20194;-67
2022/09/26 03:46:52;;;;;;;2.77;1.70;;;;;;;19.41;65.55;99739.88;5049951;28;20186;-67
2022/09/26 03:49:18;;;;;;;5.03;2.20;;;;;;;19.42;65.33;99730.84;5050904;28;20190;-66
2022/09/26 03:51:44;;;;;;;3.60;1.80;;;;;;;19.42;65.24;99730.03;5050046;28;20164;-66
2022/09/26 03:54:13;;;;;;;3.43;1.80;;;;;;;19.42;65.38;99724.31;5048329;28;20219;-66
2022/09/26 03:56:39;;;;;;;3.93;2.00;;;;;;;19.41;65.61;99722.69;5050242;28;20411;-66
2022/09/26 03:59:05;;;;;;;5.67;1.90;;;;;;;19.41;65.64;99719.81;5050234;28;20449;-66
2022/09/26 04:01:30;;;;;;;3.60;2.00;;;;;;;19.40;65.55;99710.41;5050386;28;20422;-66
2022/09/26 04:03:56;;;;;;;4.47;2.03;;;;;;;19.38;65.31;99707.13;5050140;28;20421;-66
2022/09/26 04:06:22;;;;;;;2.90;1.60;;;;;;;19.39;65.56;99697.31;5049724;28;20613;-67
2022/09/26 04:08:48;;;;;;;4.13;1.50;;;;;;;19.41;65.89;99700.59;5050141;28;20426;-66
2022/09/26 04:11:18;;;;;;;3.07;1.60;;;;;;;19.41;65.59;99688.34;5050152;28;20398;-66
2022/09/26 04:13:43;;;;;;;2.73;1.60;;;;;;;19.42;65.39;99692.84;5030069;28;20462;-66
2022/09/26 04:16:09;;;;;;;3.03;1.63;;;;;;;19.40;65.60;99686.66;5038766;28;20431;-66
2022/09/26 04:18:34;;;;;;;3.87;1.83;;;;;;;19.41;65.50;99688.34;5050036;28;20183;-66
2022/09/26 04:21:04;;;;;;;11.07;2.30;;;;;;;19.40;65.27;99680.94;5033049;28;20226;-66
2022/09/26 04:23:30;;;;;;;3.87;2.00;;;;;;;19.43;65.46;99677.28;5049432;28;20963;-67
2022/09/26 04:25:56;;;;;;;4.97;1.80;;;;;;;19.38;65.41;99669.91;5049457;28;20423;-67
2022/09/26 04:28:22;;;;;;;4.63;1.97;;;;;;;19.38;65.65;99672.78;5049906;28;20426;-66
2022/09/26 04:30:48;;;;;;;2.50;1.40;;;;;;;19.39;66.02;99662.13;5050513;28;20258;-66
2022/09/26 04:33:14;;;;;;;5.30;2.53;;;;;;;19.39;65.44;99673.59;5032680;28;20462;-67
2022/09/26 04:35:39;;;;;;;4.90;1.70;;;;;;;19.38;65.37;99661.34;5032947;28;20192;-67
2022/09/26 04:38:04;;;;;;;3.43;1.97;;;;;;;19.39;65.57;99665.84;5049943;28;20242;-67
2022/09/26 04:40:30;;;;;;;3.60;1.70;;;;;;;19.41;65.80;99662.56;5049976;28;20650;-67
2022/09/26 04:42:56;;;;;;;2.30;1.47;;;;;;;19.40;65.30;99663.78;5051093;28;20172;-66
2022/09/26 04:45:21;;;;;;;4.90;1.60;;;;;;;19.40;65.52;99658.88;5050465;28;20194;-66
2022/09/26 04:47:46;;;;;;;3.03;1.67;;;;;;;19.42;65.40;99653.56;5050677;28;20615;-66
2022/09/26 04:50:12;;;;;;;4.10;1.77;;;;;;;19.41;65.88;99643.34;5050629;28;20180;-67
2022/09/26 04:52:37;;;;;;;3.63;1.47;;;;;;;19.40;65.41;99641.69;5049093;28;20211;-67
2022/09/26 04:55:03;;;;;;;3.00;1.30;;;;;;;19.42;65.32;99647.84;5050737;28;20176;-66
2022/09/26 04:57:29;;;;;;;2.90;1.70;;;;;;;19.38;65.76;99644.16;5050389;28;20237;-67
2022/09/26 04:59:54;;;;;;;2.80;1.53;;;;;;;19.39;65.12;99648.66;5048823;28;20426;-66
2022/09/26 05:02:20;;;;;;;4.30;1.97;;;;;;;19.40;65.21;99643.72;5049627;28;20168;-66
2022/09/26 05:04:47;;;;;;;3.70;2.13;;;;;;;19.39;65.16;99642.09;5049928;28;20183;-66
2022/09/26 05:07:14;;;;;;;3.40;1.90;;;;;;;19.40;65.60;99646.59;5050386;28;20623;-66
2022/09/26 05:09:41;;;;;;;3.80;1.63;;;;;;;19.39;65.25;99645.78;5048739;28;20453;-67
2022/09/26 05:12:06;;;;;;;2.77;1.37;;;;;;;19.40;65.70;99641.69;5032261;28;20881;-66
2022/09/26 05:14:34;;;;;;;2.47;1.50;;;;;;;19.42;65.39;99639.25;5049971;28;20427;-67
2022/09/26 05:17:00;;;;;;;3.70;1.80;;;;;;;19.43;65.05;99635.19;5048878;28;20163;-66
2022/09/26 05:19:26;;;;;;;3.27;1.43;;;;;;;19.41;65.98;99634.75;5048809;28;20415;-66
2022/09/26 05:21:51;;;;;;;4.60;1.80;;;;;;;19.37;65.48;99638.84;5050268;28;20413;-67
2022/09/26 05:27:01;;;;;;;3.40;1.50;;;;;;;19.41;65.34;99634.75;5048631;28;20195;-67
2022/09/26 05:29:26;;;;;;;2.50;1.50;;;;;;;19.42;65.56;99633.53;5015449;28;20434;-67
2022/09/26 05:31:53;;;;;;;5.00;1.77;;;;;;;19.40;65.22;99635.97;5049841;28;20179;-66
2022/09/26 05:34:18;;;;;;;2.73;1.63;;;;;;;19.41;66.05;99643.34;5049910;28;20183;-66
2022/09/26 05:36:44;;;;;;;1.90;1.20;;;;;;;19.40;65.80;99635.97;5049983;28;20402;-66
2022/09/26 05:40:55;;;;;;;2.90;1.50;;;;;;;19.43;65.09;99637.22;5050304;28;20163;-66
2022/09/26 05:41:55;;;;;;;2.70;1.73;;;;;;;19.42;65.42;99642.09;5049970;28;20309;-66
2022/09/26 05:44:21;;;;;;;2.93;1.70;;;;;;;19.43;64.97;99634.34;5031957;28;20430;-67
2022/09/26 05:46:47;;;;;;;3.27;1.57;;;;;;;19.41;65.85;99633.94;5031528;28;20419;-67
2022/09/26 05:49:13;;;;;;;3.47;1.80;;;;;;;19.41;65.00;99631.88;5048220;28;20216;-66
2022/09/26 05:51:40;;;;;;;3.20;1.37;;;;;;;19.43;65.19;99618.00;5050495;28;20651;-67
2022/09/26 05:54:05;;;;;;;2.90;1.40;;;;;;;19.43;64.91;99628.63;5048518;28;20442;-67
2022/09/26 05:56:31;;;;;;;3.20;1.40;;;;;;;19.39;65.13;99624.91;5048572;28;20893;-66
2022/09/26 05:58:56;;;;;;;2.50;1.50;;;;;;;19.42;65.23;99629.84;5049998;28;20168;-66
2022/09/26 06:01:23;;;;;;;3.47;1.80;;;;;;;19.44;64.98;99622.50;5050035;28;20168;-67
2022/09/26 06:03:48;;;;;;;4.03;1.90;;;;;;;19.45;65.24;99621.28;5032503;28;20203;-66
2022/09/26 06:06:15;;;;;;;2.23;1.43;;;;;;;19.44;65.01;99633.94;5032434;28;20426;-67
2022/09/26 06:08:41;;;;;;;3.80;1.87;;;;;;;19.45;65.30;99626.16;5036236;28;20176;-66
2022/09/26 06:11:08;;;;;;;5.40;1.97;;;;;;;19.43;65.46;99622.91;5032027;28;20474;-66
2022/09/26 06:13:34;;;;;;;2.60;1.57;;;;;;;19.44;65.42;99633.94;5048896;28;20210;-66
2022/09/26 06:16:04;;;;;;;2.80;1.20;;;;;;;19.43;65.01;99628.63;5049817;28;20418;-66
2022/09/26 06:18:31;;;;;;;2.90;1.70;;;;;;;19.46;64.77;99628.63;5048703;28;20163;-66
2022/09/26 06:21:00;;;;;;;2.07;1.23;;;;;;;19.44;65.03;99631.09;5047049;28;20913;-66
2022/09/26 06:23:25;;;;;;;2.40;1.57;;;;;;;19.47;65.14;99623.75;5013738;28;20430;-66
2022/09/26 06:25:50;;;;;;;4.20;2.30;;;;;;;19.45;65.13;99617.56;5047478;28;20433;-66
2022/09/26 06:28:17;;;;;;;2.70;1.50;;;;;;;19.45;65.17;99612.69;5046288;28;20168;-66
2022/09/26 06:30:43;;;;;;;1.97;1.30;;;;;;;19.46;64.84;99620.03;5046744;28;20255;-66
2022/09/26 06:33:08;;;;;;;2.70;1.53;;;;;;;19.44;65.17;99613.91;5047325;28;21000;-66
2022/09/26 06:35:34;;;;;;;3.20;2.00;;;;;;;19.46;64.75;99617.19;5047106;28;20471;-66
2022/09/26 06:37:59;;;;;;;2.63;1.63;;;;;;;19.44;65.18;99608.19;5049315;28;20175;-66
2022/09/26 06:40:25;;;;;;;3.10;2.00;;;;;;;19.47;64.90;99609.44;5049076;28;20176;-66
2022/09/26 06:42:50;;;;;;;3.00;1.97;;;;;;;19.47;65.44;99598.78;5048048;28;20175;-66
2022/09/26 06:45:15;;;;;;;2.97;1.80;;;;;;;19.46;64.94;99599.22;5048018;28;20191;-66
2022/09/26 06:47:41;;;;;;;2.90;1.80;;;;;;;19.46;64.93;99585.69;5046143;28;20176;-66
2022/09/26 06:50:07;;;;;;;3.80;1.70;;;;;;;19.46;64.91;99594.28;5046509;28;20168;-66
2022/09/26 06:52:35;;;;;;;3.50;2.10;;;;;;;19.46;65.49;99593.47;5047255;28;20215;-66
2022/09/26 06:55:02;;;;;;;3.10;1.70;;;;;;;19.46;64.76;99596.34;5046113;28;20247;-66
2022/09/26 06:57:28;;;;;;;3.10;1.67;;;;;;;19.51;64.88;99595.94;5046036;28;20441;-66
2022/09/26 06:59:54;;;;;;;2.67;1.57;;;;;;;19.48;65.17;99591.84;5046803;28;20998;-66
2022/09/26 07:02:20;;;;;;;3.03;1.60;;;;;;;19.47;64.75;99590.19;5051916;28;20406;-66
2022/09/26 07:04:45;;;;;;;2.93;1.67;;;;;;;19.47;64.81;99592.25;5052093;28;20179;-66
2022/09/26 07:07:10;;;;;;;3.80;2.00;;;;;;;19.46;65.50;99591.41;5052432;28;20189;-66
2022/09/26 07:09:36;;;;;;;2.00;1.37;;;;;;;19.49;64.60;99587.75;5034298;28;20204;-66
2022/09/26 07:12:01;;;;;;;2.77;1.80;;;;;;;19.47;65.52;99583.66;5052206;28;20215;-66
2022/09/26 07:14:27;;;;;;;3.33;1.93;;;;;;;19.50;64.71;99582.84;5051164;28;20194;-66
2022/09/26 07:16:53;;;;;;;3.47;1.73;;;;;;;19.48;65.02;99577.53;5050320;28;20632;-66
2022/09/26 07:19:18;;;;;;;4.10;1.40;;;;;;;19.52;64.63;99597.59;5052737;28;20183;-66
2022/09/26 07:21:45;;;;;;;2.73;1.73;;;;;;;19.49;64.80;99584.91;5051118;28;20210;-66
2022/09/26 07:24:13;;;;;;;2.77;1.30;;;;;;;19.51;64.58;99588.16;5052342;28;20179;-66
2022/09/26 07:26:41;;;;;;;2.93;1.60;;;;;;;19.51;64.75;99578.78;5051061;28;20402;-67
2022/09/26 07:29:07;;;;;;;3.20;1.57;;;;;;;19.51;64.53;99573.03;5050961;28;20426;-66
2022/09/26 07:31:33;;;;;;;2.10;1.30;;;;;;;19.50;65.31;99577.94;5050832;28;20418;-66
2022/09/26 07:33:58;;;;;;;2.27;1.60;;;;;;;19.48;65.28;99574.69;5052364;28;20465;-66
2022/09/26 07:36:24;;;;;;;2.20;1.30;;;;;;;19.49;64.94;99576.31;5051873;28;20187;-66
2022/09/26 07:38:49;;;;;;;2.80;1.53;;;;;;;19.51;64.91;99573.84;5051932;28;20184;-66
2022/09/26 07:41:15;;;;;;;2.87;1.50;;;;;;;19.50;65.69;99569.34;5051949;28;20192;-66
2022/09/26 07:43:40;;;;;;;3.00;1.70;;;;;;;19.51;64.68;99561.59;5052219;28;20187;-67
2022/09/26 07:51:35;;;;;;;4.20;1.70;;;;;;;19.50;64.52;99554.19;5052095;28;20473;-66
2022/09/26 07:54:01;;;;;;;2.73;1.50;;;;;;;19.54;64.44;99560.75;5051856;28;20458;-66
2022/09/26 07:56:26;;;;;;;3.80;1.57;;;;;;;19.54;64.57;99561.59;5051675;28;20437;-66
2022/09/26 07:58:53;;;;;;;2.60;1.90;;;;;;;19.52;64.94;99557.50;5050351;28;20179;-66
2022/09/26 08:01:19;;;;;;;2.57;1.50;;;;;;;19.52;64.46;99558.28;5051567;28;20159;-66
2022/09/26 08:03:47;;;;;;;3.37;1.53;;;;;;;19.52;64.59;99548.91;5051119;28;20429;-66
2022/09/26 08:06:13;;;;;;;2.80;1.60;;;;;;;19.52;65.17;99558.28;5050155;28;20164;-66
2022/09/26 08:08:40;;;;;;;3.57;1.63;;;;;;;19.55;64.35;99545.22;5051877;28;20453;-66
2022/09/26 08:11:17;;;;;;;2.00;1.30;;;;;;;19.52;65.07;99541.13;5049794;28;20838;-66
2022/09/26 08:13:43;;;;;;;3.80;1.47;;;;;;;19.53;64.52;99536.22;5034354;28;20493;-67
2022/09/26 08:16:08;;;;;;;2.20;1.50;;;;;;;19.54;64.44;99538.69;5050581;28;20920;-66
2022/09/26 08:18:34;;;;;;;2.70;1.73;;;;;;;19.54;64.77;99541.56;5051267;28;20441;-66
2022/09/26 08:21:04;;;;;;;3.50;1.53;;;;;;;19.51;64.84;99536.63;5048619;28;20568;-66
2022/09/26 08:23:30;;;;;;;2.60;1.43;;;;;;;19.54;64.52;99527.25;5048801;28;20245;-66
2022/09/26 08:25:55;;;;;;;2.33;1.57;;;;;;;19.57;64.90;99531.34;5048186;28;20410;-67
2022/09/26 08:28:21;;;;;;;2.73;1.50;;;;;;;19.58;64.47;99525.22;5048411;28;20638;-66
2022/09/26 08:30:46;;;;;;;2.00;1.17;;;;;;;19.57;64.87;99526.41;5049325;28;20183;-66
2022/09/26 08:33:12;;;;;;;2.57;1.40;;;;;;;19.56;64.27;99518.25;5049723;28;20206;-66
2022/09/26 08:35:37;;;;;;;2.30;1.40;;;;;;;19.57;64.64;99514.94;5049035;28;20184;-66
2022/09/26 08:38:04;;;;;;;2.40;1.30;;;;;;;19.59;64.46;99509.66;5050983;28;20664;-66
2022/09/26 08:40:58;;;;;;;3.20;1.60;;;;;;;19.57;64.56;99519.88;5049820;28;20248;-66
2022/09/26 08:43:39;;;;;;;3.13;1.60;;;;;;;19.54;65.27;99521.50;5050695;28;20510;-66
2022/09/26 08:46:36;;;;;;;2.27;1.60;;;;;;;19.56;64.60;99527.63;5049835;28;20525;-66
2022/09/26 08:49:26;;;;;;;2.67;1.40;;;;;;;19.56;64.84;99519.03;5049541;28;20449;-66
2022/09/26 08:51:53;;;;;;;2.20;1.47;;;;;;;19.56;64.50;99506.78;5050009;28;20765;-67
2022/09/26 08:54:35;;;;;;;5.23;1.70;;;;;;;19.55;64.66;99510.84;5049660;28;20446;-66
2022/09/26 08:57:04;;;;;;;2.63;1.47;;;;;;;19.57;64.49;99506.38;5049464;28;20909;-66
2022/09/26 08:59:38;;;;;;;3.43;1.53;;;;;;;19.55;64.71;99505.97;5049060;28;20426;-66
2022/09/26 09:02:47;;;;;;;2.77;1.33;;;;;;;19.57;64.66;99502.69;5048883;28;20414;-66
2022/09/26 09:05:37;;;;;;;2.13;1.23;;;;;;;19.52;64.57;99506.75;5028245;28;20427;-66
2022/09/26 09:08:06;;;;;;;2.20;1.20;;;;;;;19.57;65.22;99509.22;5026572;28;20446;-66
2022/09/26 09:10:53;;;;;;;3.93;1.60;;;;;;;19.55;64.76;99497.38;5005824;28;20455;-66
2022/09/26 09:13:41;;;;;;;2.43;1.37;;;;;;;19.57;64.38;99496.97;5031384;28;20516;-66
2022/09/26 09:16:15;;;;;;;2.40;1.60;;;;;;;19.57;64.42;99496.97;5048810;28;20441;-66
2022/09/26 09:19:16;;;;;;;4.30;1.60;;;;;;;19.56;64.50;99493.28;5049791;28;20590;-67
2022/09/26 09:22:13;;;;;;;3.07;1.50;;;;;;;19.56;64.46;99486.75;5047746;28;20438;-66
2022/09/26 09:24:48;;;;;;;2.53;1.33;;;;;;;19.59;64.46;99489.63;5034630;28;20426;-66
2022/09/26 09:27:27;;;;;;;3.20;1.60;;;;;;;19.55;64.36;99487.94;5049708;28;20413;-67
2022/09/26 09:30:11;;;;;;;2.30;1.40;;;;;;;19.55;64.55;99480.19;5032890;28;20429;-66
2022/09/26 09:32:56;;;;;;;2.50;1.40;;;;;;;19.54;64.72;99484.28;5047625;28;20469;-67
2022/09/26 09:35:37;;;;;;;2.00;1.30;;;;;;;19.56;64.50;99481.81;5048781;28;20463;-64
2022/09/26 09:38:04;;;;;;;2.13;1.20;;;;;;;19.56;64.60;99478.97;5047694;28;20869;-65
2022/09/26 09:40:36;;;;;;;2.10;1.43;;;;;;;19.58;64.59;99467.94;5047900;28;20426;-65
2022/09/26 09:43:34;;;;;;;3.00;1.73;;;;;;;19.58;64.83;99469.97;5049201;28;20415;-65
2022/09/26 09:46:04;;;;;;;2.30;1.33;;;;;;;19.56;64.51;99470.38;5035266;28;20402;-65
2022/09/26 09:48:30;;;;;;;3.40;1.47;;;;;;;19.57;64.48;99466.28;5051453;28;20422;-65
2022/09/26 09:51:07;;;;;;;2.20;1.30;;;;;;;19.55;65.14;99460.16;5034106;28;20552;-65
2022/09/26 09:53:38;;;;;;;2.17;1.33;;;;;;;19.52;64.85;99455.22;5033517;28;20262;-65
2022/09/26 09:56:46;;;;;;;2.73;1.30;;;;;;;19.55;64.41;99451.56;5049576;28;20426;-65
2022/09/26 09:59:23;;;;;;;2.13;1.30;;;;;;;19.52;64.60;99442.97;5051594;28;20440;-65
2022/09/26 10:01:55;;;;;;;2.77;1.50;;;;;;;19.54;65.23;99447.06;5051201;28;20429;-65
2022/09/26 10:04:33;;;;;;;3.63;1.63;;;;;;;19.53;64.48;99428.25;5049468;28;20446;-66
2022/09/26 10:07:00;;;;;;;2.13;1.47;;;;;;;19.52;64.88;99423.75;5050649;28;20509;-65
2022/09/26 10:09:28;;;;;;;3.17;1.50;;;;;;;19.55;64.60;99434.38;5032817;28;20450;-65
2022/09/26 10:11:53;;;;;;;2.30;1.30;;;;;;;19.54;64.69;99429.06;5048571;28;20473;-65
2022/09/26 10:14:41;;;;;;;1.97;1.20;;;;;;;19.54;64.47;99429.88;5048964;28;20470;-66
2022/09/26 10:17:13;;;;;;;2.57;1.50;;;;;;;19.58;64.39;99416.41;5048597;28;20202;-65
2022/09/26 10:19:39;;;;;;;2.43;1.50;;;;;;;19.56;64.41;99420.91;5049464;28;20399;-65
2022/09/26 10:22:08;;;;;;;2.40;1.63;;;;;;;19.55;64.74;99414.34;5015574;28;20426;-66
2022/09/26 10:24:39;;;;;;;2.40;1.50;;;;;;;19.58;64.57;99402.09;5049897;28;20414;-66
2022/09/26 10:27:24;;;;;;;2.33;1.50;;;;;;;19.55;64.62;99402.91;5048959;28;20415;-65
2022/09/26 10:29:59;;;;;;;2.03;1.30;;;;;;;19.56;64.54;99404.53;5046715;28;20424;-65
2022/09/26 10:32:28;;;;;;;2.40;1.23;;;;;;;19.57;64.47;99409.00;5047764;28;20424;-65
2022/09/26 10:35:04;;;;;;;1.80;1.00;;;;;;;19.56;64.87;99398.78;5031046;28;20483;-65
2022/09/26 10:37:30;;;;;;;2.17;1.37;;;;;;;19.55;64.93;99400.03;5050448;28;20436;-65
2022/09/26 10:42:43;;;;;;;2.37;1.20;;;;;;;19.55;64.51;99393.47;5038359;28;20658;-65
2022/09/26 10:45:26;;;;;;;2.30;1.50;;;;;;;19.56;64.59;99401.66;5032213;28;20435;-66
2022/09/26 10:47:52;;;;;;;2.30;1.27;;;;;;;19.55;64.59;99397.16;5031933;28;20865;-65
2022/09/26 10:50:22;;;;;;;2.13;1.40;;;;;;;19.54;64.71;99389.81;5040785;28;20472;-66
2022/09/26 10:52:52;;;;;;;2.30;1.37;;;;;;;19.55;64.41;99380.00;5051458;28;20489;-66
2022/09/26 10:55:26;;;;;;;2.60;1.47;;;;;;;19.58;64.33;99389.81;5053137;28;20429;-66
2022/09/26 10:58:00;;;;;;;3.80;1.77;;;;;;;19.54;64.61;99375.50;5051684;28;20430;-65
2022/09/26 11:00:39;;;;;;;2.90;1.63;;;;;;;19.54;64.71;99372.63;5051706;28;20414;-65
2022/09/26 11:03:15;;;;;;;6.20;1.40;;;;;;;19.55;64.33;99365.66;5051105;28;20429;-66
2022/09/26 11:05:58;;;;;;;2.20;1.60;;;;;;;19.56;64.45;99370.16;5034992;28;20421;-65
2022/09/26 11:08:26;;;;;;;2.13;1.33;;;;;;;19.57;64.27;99362.41;5051905;28;20414;-65
2022/09/26 11:10:51;;;;;;;2.03;1.30;;;;;;;19.55;64.51;99361.97;5050949;28;20549;-66
2022/09/26 11:13:17;;;;;;;2.93;1.40;;;;;;;19.55;64.61;99370.56;5052374;28;20544;-66
2022/09/26 11:16:07;;;;;;;2.10;1.27;;;;;;;19.56;64.59;99352.97;5052314;28;20547;-66
2022/09/26 11:19:07;;;;;;;2.20;1.30;;;;;;;19.56;64.54;99358.72;5046120;28;20840;-66
2022/09/26 11:21:37;;;;;;;3.53;1.77;;;;;;;19.55;64.99;99351.34;5052255;28;20405;-65
2022/09/26 11:24:21;;;;;;;2.40;1.33;;;;;;;19.58;64.37;99353.41;5052403;28;20402;-65
2022/09/26 11:26:48;;;;;;;2.63;1.27;;;;;;;19.58;64.50;99347.69;5052449;28;20509;-66
2022/09/26 11:29:38;;;;;;;3.70;2.07;;;;;;;19.57;64.40;99356.69;5052177;28;20399;-66
2022/09/26 11:32:04;;;;;;;2.60;1.40;;;;;;;19.57;64.40;99351.75;5050331;28;20438;-66
2022/09/26 11:34:30;;;;;;;2.63;1.43;;;;;;;19.56;64.59;99352.97;5034242;28;21026;-66
2022/09/26 11:37:14;;;;;;;2.30;1.40;;;;;;;19.57;64.31;99350.94;5050233;28;20191;-66
2022/09/26 11:40:11;;;;;;;2.20;1.30;;;;;;;19.58;64.39;99339.09;5050524;28;20171;-66
2022/09/26 11:43:12;;;;;;;2.53;1.50;;;;;;;19.59;64.28;99346.44;5041625;28;20422;-65
2022/09/26 11:46:16;;;;;;;2.50;1.33;;;;;;;19.59;64.58;99332.13;5028724;28;20450;-66
2022/09/26 11:48:41;;;;;;;2.73;1.60;;;;;;;19.58;64.59;99335.41;5043489;28;20906;-65
2022/09/26 11:51:36;;;;;;;2.40;1.30;;;;;;;19.61;64.57;99326.81;5050286;28;20486;-65
2022/09/26 11:54:13;;;;;;;3.53;1.60;;;;;;;19.57;64.30;99320.25;5032614;28;20230;-65
2022/09/26 11:56:57;;;;;;;2.43;1.50;;;;;;;19.57;64.44;99313.72;5051144;28;20417;-65
2022/09/26 11:59:41;;;;;;;2.70;1.57;;;;;;;19.60;64.33;99319.44;5050554;28;20411;-65
2022/09/26 12:02:31;;;;;;;2.73;1.37;;;;;;;19.61;64.42;99312.47;5052487;28;20767;-66
2022/09/26 12:05:26;;;;;;;4.00;1.70;;;;;;;19.59;64.89;99306.38;5050417;28;20437;-66
2022/09/26 12:08:13;;;;;;;2.30;1.60;;;;;;;19.56;64.31;99301.44;5047057;28;20537;-65